Airfield :
LOGIN :

Register | Disclaimer

   EN    FR    IT 

 










Legend :    VFR   Marginal VFR   IFR   Intensive IFR   Very Intensive IFR
Visi :
Ceiling :
>= 8 km
>= 3000ft
5 to 8 km
1000 to 3000 ft
1500m to 5 km
500 to 1000 ft
800 to 1500m
200 to 500 ft
< 800m
< 200 ft
Symbols :   Thunderstorms  Fog  Heavy snow  Heavy precipitations  Wind > 20 kt
SIGMETs :     Misc.  Thunderstorms  Icing  Turbulence  Mountain Waves  Volcanic Ashes






- Airport Elevation : 364 ft
- IATA code : FRA


EDDF - Frankfurt Int.

CURRENT METAR :
  • 040020Z 31004KT 280V340 CAVOK 19/11 Q1019 NOSIG

EXPIRED METARs :
  • 032350Z 32006KT 290V350 CAVOK 20/11 Q1019 NOSIG
  • 031520Z 25009KT 190V320 CAVOK 30/08 Q1016 NOSIG
  • 032320Z 33006KT CAVOK 20/11 Q1018 NOSIG
  • 032250Z 33009KT 300V360 CAVOK 21/11 Q1018 NOSIG
  • 032150Z 32006KT 280V350 CAVOK 21/12 Q1018 NOSIG

TAF TAF EDDF
Valid from the 04 at 00:00 until the 05 at 06:00 UTC


032300Z 0400/0506 34004KT CAVOK
TEMPO 0412/0418 28009KT



MET'MAP, your aeronautical weather chart ! - Copyright ORBIFLY December 2007 - Disclaimer

ORBIFLY MET'MAP TEAM :

Programming & Development : Alexandra Zaïnal
Original concept : Baudouin d'Aumeries
Technical & hardware support : Manuel Goepfert
Assistance : Marc-Olivier Méhu




SOURCES & CREDITS :

   NOAA